SpazioLink.com il tuo mini portale

Terremoti in Italia, posizione geografica

Spaziolink il MiniPortale

Home Sfondi Screenmates SuperEnalotto Posizione navi Terremoti Calendario feste Barzellette Frasi utili Giochi Meteo Gifs Software Ricerca
Lista dei terremoti in Italia in tempo reale dopo l'elaborazione dei valori rilevati dai sensori dislocati nelle zone interessate, comprendenti gli eventi sismici di elevata magnitudo sull'intero globo, per visualizzare la posizione dell'epicentro su Google Maps cliccare sul nome del luogo evidenziato in blu.
DATA ORA MAG ≥ 2 ZONA REGIONE LAT LONG PROF km
27/10/2020 12:53:53 ML 2.2 Svizzera (SVIZZERA) Mondo 46.92 9.15 11.3
27/10/2020 11:42:16 ML 2.4 2 km a ovest di Castiglione d`Orcia (SI) Toscana 43.00 11.59 10.3
27/10/2020 10:48:58 ML 3.4 Tirreno Meridionale (MARE) Mare 39.67 15.17 305.8
27/10/2020 04:40:44 ML 2.1 Svizzera (SVIZZERA) Mondo 46.94 9.12 10.0
27/10/2020 03:15:31 ML 2.1 4 km nord-est Castiglione dei Pepoli (BO) Emilia Romagna 44.17 11.19 10.2
27/10/2020 02:10:03 ML 2.0 7 km a est di Panettieri (CS) Calabria 39.08 16.53 9.1
26/10/2020 22:14:18 ML 2.1 6 km a est di Santo Stefano in Aspromonte (RC) Calabria 38.19 15.85 7.2
26/10/2020 21:50:25 ML 2.2 5 km a est di Santo Stefano in Aspromonte (RC) Calabria 38.18 15.85 8.1
26/10/2020 21:47:56 ML 2.5 Confine Italia-Francia (FRANCIA) Mondo 45.56 6.87 9.7
26/10/2020 20:47:31 ML 2.5 6 km a est di Santo Stefano in Aspromonte (RC) Calabria 38.18 15.85 8.1
26/10/2020 15:39:58 ML 2.1 5 km a ovest di Acquaro (VV) Calabria 38.58 16.14 17.1
26/10/2020 10:39:53 ML 2.1 2 km a sud-est di Viadanica (BG) Lombardia 45.68 9.98 9.4
26/10/2020 07:14:59 ML 2.0 Mar Ionio Meridionale (MARE) Mare 37.56 16.05 33.9
26/10/2020 04:52:21 ML 3.6 Tirreno Meridionale (MARE) Mare 38.74 13.93 32.7
26/10/2020 04:49:34 ML 2.0 Svizzera (SVIZZERA) Mondo 46.92 9.14 10.1
26/10/2020 01:57:12 ML 2.4 8 km a ovest di Milo (CT) Sicilia 37.74 15.03 3.7
26/10/2020 00:22:11 ML 2.4 6 km a est di Santo Stefano in Aspromonte (RC) Calabria 38.19 15.85 8.2
25/10/2020 23:23:34 ML 3.0 Svizzera (SVIZZERA) Mondo 46.93 9.14 9.9
25/10/2020 22:06:59 ML 2.4 Svizzera (SVIZZERA) Mondo 46.86 9.17 1.7
25/10/2020 20:43:09 ML 3.4 Svizzera (SVIZZERA) Mondo 46.94 9.13 10.4
25/10/2020 20:39:36 ML 2.2 Svizzera (SVIZZERA) Mondo 46.91 9.14 8.0
25/10/2020 20:35:42 Mw 3.9 Svizzera (SVIZZERA) Mondo 46.87 9.13 1.6
25/10/2020 16:01:05 ML 2.9 Tirreno Meridionale (MARE) Mare 38.84 13.91 32.7
25/10/2020 14:37:25 ML 2.3 10 km nord-est Bionaz (AO) Valle d'Aosta 45.95 7.50 1.0
25/10/2020 13:25:28 ML 2.5 Tirreno Meridionale (MARE) Mare 38.96 13.97 35.8
25/10/2020 12:47:36 Mwp 6.0 Tonga Islands (Sea: Tonga) Mondo -15.28 -173.40 19.5
25/10/2020 08:37:53 ML 3.0 3 km a sud di Fiastra (MC) Marche 43.01 13.15 10.0
25/10/2020 02:43:14 ML 2.2 6 km a est di Santo Stefano in Aspromonte (RC) Calabria 38.19 15.85 9.3
25/10/2020 01:41:00 ML 2.6 Tirreno Meridionale (MARE) Mare 38.73 13.89 34.0
25/10/2020 00:51:47 ML 2.2 Tirreno Meridionale (MARE) Mare 38.81 13.94 22.3
25/10/2020 00:45:21 ML 2.1 5 km a est di Santo Stefano in Aspromonte (RC) Calabria 38.18 15.84 7.6
25/10/2020 00:37:48 ML 2.0 Costa Catanese (Catania) Mare 37.80 15.44 19.7
25/10/2020 00:34:24 ML 2.7 6 km a est di Santo Stefano in Aspromonte (RC) Calabria 38.18 15.85 8.2
25/10/2020 00:23:37 ML 2.0 6 km a est di Santo Stefano in Aspromonte (RC) Calabria 38.18 15.85 7.7
24/10/2020 22:48:13 ML 3.7 Tirreno Meridionale (MARE) Mare 38.76 13.93 22.9
24/10/2020 22:26:33 ML 2.5 Tirreno Meridionale (MARE) Mare 38.74 13.92 31.9
24/10/2020 21:30:07 ML 2.3 Tirreno Meridionale (MARE) Mare 38.54 13.43 6.8
24/10/2020 17:19:50 ML 2.4 Costa Catanese (Catania) Mare 37.37 15.21 18.2
24/10/2020 16:13:17 ML 2.6 Tirreno Meridionale (MARE) Mare 38.75 13.97 33.4
24/10/2020 16:07:52 ML 2.7 Tirreno Meridionale (MARE) Mare 38.77 13.95 32.2
24/10/2020 15:55:58 ML 3.1 Tirreno Meridionale (MARE) Mare 38.75 13.93 34.3
24/10/2020 15:02:26 ML 3.1 Golfo di Salerno (Salerno) Mare 40.42 14.83 7.0
24/10/2020 14:38:22 ML 2.6 Tirreno Meridionale (MARE) Mare 39.27 15.48 272.6
24/10/2020 11:49:37 ML 2.3 Adriatico Centrale (MARE) Mare 42.23 16.98 29.4
24/10/2020 10:14:30 ML 2.8 5 km a nord-ovest di Troina (EN) Sicilia 37.83 14.57 36.0
24/10/2020 04:50:06 ML 2.6 Isole Eolie (Messina) Mare 38.74 15.14 303.3
24/10/2020 03:00:32 ML 3.1 7 km a nord di Troina (EN) Sicilia 37.85 14.59 31.5
24/10/2020 02:29:40 ML 2.2 2 km a sud-est di Roccafluvione (AP) Marche 42.85 13.49 19.4
23/10/2020 18:46:01 ML 2.3 5 km a nord-ovest di Troina (EN) Sicilia 37.83 14.58 36.3
23/10/2020 16:08:16 ML 3.7 Bosnia and Herz. (Land) Mondo 43.34 17.62 26.5
23/10/2020 15:54:36 ML 2.0 11 km a ovest di Milo (CT) Sicilia 37.75 15.00 1.2
23/10/2020 15:44:59 ML 2.9 Tirreno Meridionale (MARE) Mare 38.79 13.91 23.3
23/10/2020 09:04:30 Mwp 6.1 South of Fiji Islands (Sea) Mondo -25.62 -179.84 459.8
23/10/2020 01:14:37 ML 3.2 Tirreno Meridionale (MARE) Mare 38.81 13.94 24.2
22/10/2020 22:01:47 ML 2.2 Stretto di Messina (Reggio di Calabria, Messina) Mare 37.93 15.68 29.0
22/10/2020 21:43:19 ML 2.9 Tirreno Meridionale (MARE) Mare 38.76 13.93 33.5
22/10/2020 21:29:22 ML 3.2 Tirreno Meridionale (MARE) Mare 38.74 13.94 32.8
22/10/2020 19:39:49 ML 2.1 8 km nord-est Adrano (CT) Sicilia 37.72 14.89 21.3
22/10/2020 19:35:48 ML 2.1 8 km nord-est Adrano (CT) Sicilia 37.71 14.89 20.6
22/10/2020 17:39:15 ML 2.0 3 km a ovest di Tito (PZ) Basilicata 40.58 15.64 17.6
22/10/2020 17:36:09 ML 2.3 6 km nord-est Leonessa (RI) Lazio 42.59 13.03 12.0
22/10/2020 16:05:17 ML 2.0 8 km nord-est Biancavilla (CT) Sicilia 37.70 14.91 20.0
22/10/2020 15:13:46 ML 2.1 7 km nord-est Adrano (CT) Sicilia 37.71 14.88 22.2
22/10/2020 14:41:02 ML 2.0 4 km a ovest di Campotosto (AQ) Abruzzo 42.57 13.32 12.8
22/10/2020 14:24:40 ML 2.2 8 km nord-est Adrano (CT) Sicilia 37.73 14.87 21.2
22/10/2020 14:14:02 ML 2.0 8 km a sud-est di Bronte (CT) Sicilia 37.73 14.88 19.9
22/10/2020 01:00:57 mb 5.0 Mar Ionio Meridionale (MARE) Mare 37.10 20.73 19.5
21/10/2020 21:06:48 ML 2.7 2 km a ovest di Caino (BS) Lombardia 45.61 10.29 8.9
21/10/2020 18:35:15 ML 2.0 Mercatino Conca (PU) Marche 43.87 12.49 45.6
21/10/2020 16:52:58 ML 2.3 4 km a est di Roccafluvione (AP) Marche 42.85 13.52 20.4
21/10/2020 02:22:34 Mwp 6.0 Tonga Islands region (Sea: Tonga) Mondo -19.19 -172.46 0.8
21/10/2020 02:12:43 ML 2.7 4 km a nord-ovest di Ussita (MC) Marche 42.98 13.12 9.2
20/10/2020 09:36:40 ML 3.1 Malta (Sea) Mondo 35.54 15.82 61.6
20/10/2020 03:38:20 ML 2.0 5 km a sud-est di Bagnolo in Piano (RE) Emilia Romagna 44.72 10.70 8.4
Locations of visitors to this page (counting)
- subnet mask - partners - ipcheck - favicon - speedtest - canale youtube - programmone